sensor_id;sensor_type;location;lat;lon;timestamp;P1;durP1;ratioP1;P2;durP2;ratioP2
9924;SDS011;5001;51.674;7.868;2023-08-24T00:01:59;12.25;;;8.02;;
9924;SDS011;5001;51.674;7.868;2023-08-24T00:04:26;14.50;;;8.27;;
9924;SDS011;5001;51.674;7.868;2023-08-24T00:06:54;10.65;;;8.23;;
9924;SDS011;5001;51.674;7.868;2023-08-24T00:09:21;15.48;;;8.40;;
9924;SDS011;5001;51.674;7.868;2023-08-24T00:11:48;13.55;;;10.07;;
9924;SDS011;5001;51.674;7.868;2023-08-24T00:14:15;11.65;;;9.70;;
9924;SDS011;5001;51.674;7.868;2023-08-24T00:16:42;12.30;;;8.93;;
9924;SDS011;5001;51.674;7.868;2023-08-24T00:19:09;16.63;;;9.63;;
9924;SDS011;5001;51.674;7.868;2023-08-24T00:21:36;10.57;;;9.23;;
9924;SDS011;5001;51.674;7.868;2023-08-24T00:24:03;11.90;;;8.90;;
9924;SDS011;5001;51.674;7.868;2023-08-24T00:26:30;10.27;;;9.25;;
9924;SDS011;5001;51.674;7.868;2023-08-24T00:28:57;10.25;;;9.25;;
9924;SDS011;5001;51.674;7.868;2023-08-24T00:31:24;11.20;;;9.32;;
9924;SDS011;5001;51.674;7.868;2023-08-24T00:33:51;16.30;;;9.68;;
9924;SDS011;5001;51.674;7.868;2023-08-24T00:36:18;10.30;;;9.18;;
9924;SDS011;5001;51.674;7.868;2023-08-24T00:38:45;12.52;;;9.55;;
9924;SDS011;5001;51.674;7.868;2023-08-24T00:41:17;12.85;;;9.63;;
9924;SDS011;5001;51.674;7.868;2023-08-24T00:43:44;13.20;;;10.52;;
9924;SDS011;5001;51.674;7.868;2023-08-24T00:46:11;12.77;;;9.48;;
9924;SDS011;5001;51.674;7.868;2023-08-24T00:48:39;13.95;;;9.27;;
9924;SDS011;5001;51.674;7.868;2023-08-24T00:51:06;11.80;;;9.30;;
9924;SDS011;5001;51.674;7.868;2023-08-24T00:53:34;12.13;;;9.05;;
9924;SDS011;5001;51.674;7.868;2023-08-24T00:56:05;12.90;;;9.60;;
9924;SDS011;5001;51.674;7.868;2023-08-24T00:58:32;12.02;;;9.20;;
9924;SDS011;5001;51.674;7.868;2023-08-24T01:01:00;13.85;;;8.80;;
9924;SDS011;5001;51.674;7.868;2023-08-24T01:06:09;11.98;;;9.05;;
9924;SDS011;5001;51.674;7.868;2023-08-24T01:08:36;10.88;;;8.75;;
9924;SDS011;5001;51.674;7.868;2023-08-24T01:11:52;11.38;;;9.57;;
9924;SDS011;5001;51.674;7.868;2023-08-24T01:17:12;14.35;;;9.88;;
9924;SDS011;5001;51.674;7.868;2023-08-24T01:19:42;13.88;;;11.85;;
9924;SDS011;5001;51.674;7.868;2023-08-24T01:28:05;17.55;;;12.75;;
9924;SDS011;5001;51.674;7.868;2023-08-24T01:30:33;19.58;;;14.32;;
9924;SDS011;5001;51.674;7.868;2023-08-24T01:33:03;17.10;;;14.40;;
9924;SDS011;5001;51.674;7.868;2023-08-24T01:35:31;16.58;;;12.95;;
9924;SDS011;5001;51.674;7.868;2023-08-24T01:37:58;16.92;;;12.13;;
9924;SDS011;5001;51.674;7.868;2023-08-24T01:40:34;16.00;;;12.82;;
9924;SDS011;5001;51.674;7.868;2023-08-24T01:43:08;17.90;;;13.48;;
9924;SDS011;5001;51.674;7.868;2023-08-24T01:45:37;15.68;;;13.38;;
9924;SDS011;5001;51.674;7.868;2023-08-24T01:48:07;20.15;;;12.77;;
9924;SDS011;5001;51.674;7.868;2023-08-24T01:50:37;22.23;;;13.88;;
9924;SDS011;5001;51.674;7.868;2023-08-24T01:53:05;15.18;;;12.70;;
9924;SDS011;5001;51.674;7.868;2023-08-24T01:55:32;19.27;;;14.30;;
9924;SDS011;5001;51.674;7.868;2023-08-24T01:57:59;16.67;;;14.00;;
9924;SDS011;5001;51.674;7.868;2023-08-24T02:04:26;15.43;;;12.75;;
9924;SDS011;5001;51.674;7.868;2023-08-24T02:06:54;16.90;;;12.55;;
9924;SDS011;5001;51.674;7.868;2023-08-24T02:09:20;17.65;;;12.85;;
9924;SDS011;5001;51.674;7.868;2023-08-24T02:11:50;17.02;;;12.52;;
9924;SDS011;5001;51.674;7.868;2023-08-24T02:14:17;17.25;;;13.23;;
9924;SDS011;5001;51.674;7.868;2023-08-24T02:16:44;15.70;;;13.30;;
9924;SDS011;5001;51.674;7.868;2023-08-24T02:19:12;15.85;;;13.60;;
9924;SDS011;5001;51.674;7.868;2023-08-24T02:21:38;18.38;;;12.88;;
9924;SDS011;5001;51.674;7.868;2023-08-24T02:24:06;18.93;;;14.50;;
9924;SDS011;5001;51.674;7.868;2023-08-24T02:26:33;18.95;;;14.55;;
9924;SDS011;5001;51.674;7.868;2023-08-24T02:29:00;17.02;;;14.13;;
9924;SDS011;5001;51.674;7.868;2023-08-24T02:31:27;15.77;;;13.80;;
9924;SDS011;5001;51.674;7.868;2023-08-24T02:33:55;16.50;;;13.10;;
9924;SDS011;5001;51.674;7.868;2023-08-24T02:36:22;17.20;;;13.57;;
9924;SDS011;5001;51.674;7.868;2023-08-24T02:38:49;16.35;;;13.43;;
9924;SDS011;5001;51.674;7.868;2023-08-24T02:41:17;14.93;;;12.27;;
9924;SDS011;5001;51.674;7.868;2023-08-24T02:43:44;23.88;;;14.70;;
9924;SDS011;5001;51.674;7.868;2023-08-24T02:46:13;24.85;;;15.02;;
9924;SDS011;5001;51.674;7.868;2023-08-24T02:48:40;21.60;;;15.87;;
9924;SDS011;5001;51.674;7.868;2023-08-24T02:51:07;15.60;;;13.77;;
9924;SDS011;5001;51.674;7.868;2023-08-24T02:53:36;20.10;;;14.68;;
9924;SDS011;5001;51.674;7.868;2023-08-24T02:56:03;17.27;;;15.38;;
9924;SDS011;5001;51.674;7.868;2023-08-24T02:58:30;16.33;;;14.00;;
9924;SDS011;5001;51.674;7.868;2023-08-24T03:00:57;15.30;;;13.02;;
9924;SDS011;5001;51.674;7.868;2023-08-24T03:03:24;17.50;;;12.40;;
9924;SDS011;5001;51.674;7.868;2023-08-24T03:05:58;18.75;;;13.55;;
9924;SDS011;5001;51.674;7.868;2023-08-24T03:08:28;16.60;;;14.13;;
9924;SDS011;5001;51.674;7.868;2023-08-24T03:10:56;17.60;;;14.65;;
9924;SDS011;5001;51.674;7.868;2023-08-24T03:13:23;17.90;;;14.90;;
9924;SDS011;5001;51.674;7.868;2023-08-24T03:15:52;18.73;;;13.45;;
9924;SDS011;5001;51.674;7.868;2023-08-24T03:18:21;16.65;;;12.63;;
9924;SDS011;5001;51.674;7.868;2023-08-24T03:20:48;17.65;;;13.43;;
9924;SDS011;5001;51.674;7.868;2023-08-24T03:23:16;17.65;;;12.45;;
9924;SDS011;5001;51.674;7.868;2023-08-24T03:25:43;16.50;;;13.05;;
9924;SDS011;5001;51.674;7.868;2023-08-24T03:28:10;14.02;;;12.13;;
9924;SDS011;5001;51.674;7.868;2023-08-24T03:30:38;15.15;;;12.93;;
9924;SDS011;5001;51.674;7.868;2023-08-24T03:33:13;14.23;;;12.15;;
9924;SDS011;5001;51.674;7.868;2023-08-24T03:35:40;16.63;;;12.85;;
9924;SDS011;5001;51.674;7.868;2023-08-24T03:38:07;16.02;;;12.27;;
9924;SDS011;5001;51.674;7.868;2023-08-24T03:40:34;16.05;;;13.18;;
9924;SDS011;5001;51.674;7.868;2023-08-24T03:43:02;15.05;;;12.85;;
9924;SDS011;5001;51.674;7.868;2023-08-24T03:45:29;20.15;;;13.80;;
9924;SDS011;5001;51.674;7.868;2023-08-24T03:47:57;18.80;;;13.18;;
9924;SDS011;5001;51.674;7.868;2023-08-24T03:50:25;14.15;;;12.65;;
9924;SDS011;5001;51.674;7.868;2023-08-24T03:52:53;23.27;;;14.02;;
9924;SDS011;5001;51.674;7.868;2023-08-24T03:55:21;14.13;;;12.27;;
9924;SDS011;5001;51.674;7.868;2023-08-24T03:57:48;17.55;;;13.30;;
9924;SDS011;5001;51.674;7.868;2023-08-24T04:00:16;16.05;;;11.98;;
9924;SDS011;5001;51.674;7.868;2023-08-24T04:02:44;15.27;;;13.05;;
9924;SDS011;5001;51.674;7.868;2023-08-24T04:05:19;16.95;;;13.93;;
9924;SDS011;5001;51.674;7.868;2023-08-24T04:07:47;15.02;;;12.65;;
9924;SDS011;5001;51.674;7.868;2023-08-24T04:10:15;16.67;;;12.55;;
9924;SDS011;5001;51.674;7.868;2023-08-24T04:12:42;15.38;;;13.25;;
9924;SDS011;5001;51.674;7.868;2023-08-24T04:15:09;15.20;;;12.25;;
9924;SDS011;5001;51.674;7.868;2023-08-24T04:17:36;14.93;;;13.20;;
9924;SDS011;5001;51.674;7.868;2023-08-24T04:20:03;14.57;;;12.68;;
9924;SDS011;5001;51.674;7.868;2023-08-24T04:22:32;20.00;;;13.98;;
9924;SDS011;5001;51.674;7.868;2023-08-24T04:24:59;15.82;;;13.25;;
9924;SDS011;5001;51.674;7.868;2023-08-24T04:27:27;16.50;;;13.40;;
9924;SDS011;5001;51.674;7.868;2023-08-24T04:29:54;18.00;;;13.00;;
9924;SDS011;5001;51.674;7.868;2023-08-24T04:32:26;16.05;;;12.63;;
9924;SDS011;5001;51.674;7.868;2023-08-24T04:34:54;15.00;;;12.00;;
9924;SDS011;5001;51.674;7.868;2023-08-24T04:37:21;18.85;;;12.95;;
9924;SDS011;5001;51.674;7.868;2023-08-24T04:39:48;16.25;;;13.18;;
9924;SDS011;5001;51.674;7.868;2023-08-24T04:42:14;17.00;;;13.57;;
9924;SDS011;5001;51.674;7.868;2023-08-24T04:44:41;16.90;;;14.10;;
9924;SDS011;5001;51.674;7.868;2023-08-24T04:47:08;15.05;;;13.30;;
9924;SDS011;5001;51.674;7.868;2023-08-24T04:49:36;18.92;;;15.30;;
9924;SDS011;5001;51.674;7.868;2023-08-24T04:52:03;20.08;;;15.50;;
9924;SDS011;5001;51.674;7.868;2023-08-24T04:54:32;19.83;;;14.13;;
9924;SDS011;5001;51.674;7.868;2023-08-24T04:56:59;17.08;;;14.35;;
9924;SDS011;5001;51.674;7.868;2023-08-24T04:59:26;16.45;;;13.63;;
9924;SDS011;5001;51.674;7.868;2023-08-24T05:01:53;15.43;;;13.55;;
9924;SDS011;5001;51.674;7.868;2023-08-24T05:04:20;17.80;;;14.82;;
9924;SDS011;5001;51.674;7.868;2023-08-24T05:06:47;16.08;;;13.75;;
9924;SDS011;5001;51.674;7.868;2023-08-24T05:09:14;15.32;;;13.63;;
9924;SDS011;5001;51.674;7.868;2023-08-24T05:11:41;18.38;;;14.07;;
9924;SDS011;5001;51.674;7.868;2023-08-24T05:14:08;15.15;;;12.95;;
9924;SDS011;5001;51.674;7.868;2023-08-24T05:16:35;16.17;;;13.15;;
9924;SDS011;5001;51.674;7.868;2023-08-24T05:19:02;14.80;;;13.20;;
9924;SDS011;5001;51.674;7.868;2023-08-24T05:21:29;16.42;;;12.82;;
9924;SDS011;5001;51.674;7.868;2023-08-24T05:23:56;15.27;;;12.73;;
9924;SDS011;5001;51.674;7.868;2023-08-24T05:26:23;19.10;;;13.07;;
9924;SDS011;5001;51.674;7.868;2023-08-24T05:28:52;13.88;;;12.45;;
9924;SDS011;5001;51.674;7.868;2023-08-24T05:31:19;16.48;;;13.10;;
9924;SDS011;5001;51.674;7.868;2023-08-24T05:33:47;17.10;;;14.13;;
9924;SDS011;5001;51.674;7.868;2023-08-24T05:36:15;17.77;;;13.43;;
9924;SDS011;5001;51.674;7.868;2023-08-24T05:38:42;17.90;;;13.25;;
9924;SDS011;5001;51.674;7.868;2023-08-24T05:41:30;17.33;;;13.75;;
9924;SDS011;5001;51.674;7.868;2023-08-24T05:43:58;14.35;;;12.57;;
9924;SDS011;5001;51.674;7.868;2023-08-24T05:46:25;14.82;;;12.55;;
9924;SDS011;5001;51.674;7.868;2023-08-24T05:48:52;17.08;;;12.75;;
9924;SDS011;5001;51.674;7.868;2023-08-24T05:51:19;13.75;;;11.45;;
9924;SDS011;5001;51.674;7.868;2023-08-24T05:53:46;17.13;;;11.93;;
9924;SDS011;5001;51.674;7.868;2023-08-24T05:56:13;15.32;;;11.27;;
9924;SDS011;5001;51.674;7.868;2023-08-24T05:58:40;13.32;;;11.93;;
9924;SDS011;5001;51.674;7.868;2023-08-24T06:01:07;13.05;;;11.43;;
9924;SDS011;5001;51.674;7.868;2023-08-24T06:03:34;11.70;;;10.50;;
9924;SDS011;5001;51.674;7.868;2023-08-24T06:06:02;11.35;;;9.82;;
9924;SDS011;5001;51.674;7.868;2023-08-24T06:08:30;12.13;;;9.82;;
9924;SDS011;5001;51.674;7.868;2023-08-24T06:10:57;12.88;;;10.00;;
9924;SDS011;5001;51.674;7.868;2023-08-24T06:13:24;13.10;;;9.18;;
9924;SDS011;5001;51.674;7.868;2023-08-24T06:15:52;10.10;;;8.77;;
9924;SDS011;5001;51.674;7.868;2023-08-24T06:18:20;14.30;;;8.65;;
9924;SDS011;5001;51.674;7.868;2023-08-24T06:20:47;9.45;;;8.38;;
9924;SDS011;5001;51.674;7.868;2023-08-24T06:23:17;8.73;;;7.72;;
9924;SDS011;5001;51.674;7.868;2023-08-24T06:25:44;12.80;;;8.82;;
9924;SDS011;5001;51.674;7.868;2023-08-24T06:28:12;12.25;;;8.60;;
9924;SDS011;5001;51.674;7.868;2023-08-24T06:30:40;10.43;;;9.27;;
9924;SDS011;5001;51.674;7.868;2023-08-24T06:33:09;9.88;;;8.20;;
9924;SDS011;5001;51.674;7.868;2023-08-24T06:35:37;12.38;;;9.65;;
9924;SDS011;5001;51.674;7.868;2023-08-24T06:38:04;12.80;;;9.77;;
9924;SDS011;5001;51.674;7.868;2023-08-24T06:40:32;10.00;;;8.60;;
9924;SDS011;5001;51.674;7.868;2023-08-24T06:42:59;10.20;;;8.95;;
9924;SDS011;5001;51.674;7.868;2023-08-24T06:45:26;10.70;;;9.00;;
9924;SDS011;5001;51.674;7.868;2023-08-24T06:47:53;9.70;;;8.70;;
9924;SDS011;5001;51.674;7.868;2023-08-24T06:50:21;14.40;;;9.75;;
9924;SDS011;5001;51.674;7.868;2023-08-24T06:52:48;9.63;;;8.02;;
9924;SDS011;5001;51.674;7.868;2023-08-24T06:55:15;9.38;;;8.13;;
9924;SDS011;5001;51.674;7.868;2023-08-24T06:57:42;8.75;;;7.95;;
9924;SDS011;5001;51.674;7.868;2023-08-24T07:00:14;15.02;;;8.88;;
9924;SDS011;5001;51.674;7.868;2023-08-24T07:02:42;8.30;;;7.22;;
9924;SDS011;5001;51.674;7.868;2023-08-24T07:05:09;12.50;;;7.95;;
9924;SDS011;5001;51.674;7.868;2023-08-24T07:07:36;8.90;;;7.93;;
9924;SDS011;5001;51.674;7.868;2023-08-24T07:10:03;8.40;;;7.53;;
9924;SDS011;5001;51.674;7.868;2023-08-24T07:12:30;11.95;;;7.15;;
9924;SDS011;5001;51.674;7.868;2023-08-24T07:15:00;8.15;;;7.38;;
9924;SDS011;5001;51.674;7.868;2023-08-24T07:17:27;8.35;;;7.30;;
9924;SDS011;5001;51.674;7.868;2023-08-24T07:19:54;7.75;;;6.95;;
9924;SDS011;5001;51.674;7.868;2023-08-24T07:22:21;10.27;;;7.32;;
9924;SDS011;5001;51.674;7.868;2023-08-24T07:24:48;8.98;;;7.30;;
9924;SDS011;5001;51.674;7.868;2023-08-24T07:27:18;7.60;;;6.90;;
9924;SDS011;5001;51.674;7.868;2023-08-24T07:29:45;8.10;;;7.22;;
9924;SDS011;5001;51.674;7.868;2023-08-24T07:32:13;6.95;;;6.22;;
9924;SDS011;5001;51.674;7.868;2023-08-24T07:34:40;7.63;;;6.22;;
9924;SDS011;5001;51.674;7.868;2023-08-24T07:37:07;7.18;;;6.55;;
9924;SDS011;5001;51.674;7.868;2023-08-24T07:39:34;8.70;;;5.72;;
9924;SDS011;5001;51.674;7.868;2023-08-24T07:42:01;7.50;;;6.07;;
9924;SDS011;5001;51.674;7.868;2023-08-24T07:44:28;8.32;;;6.40;;
9924;SDS011;5001;51.674;7.868;2023-08-24T07:46:54;7.00;;;6.30;;
9924;SDS011;5001;51.674;7.868;2023-08-24T07:49:22;8.35;;;5.75;;
9924;SDS011;5001;51.674;7.868;2023-08-24T07:51:49;8.65;;;6.75;;
9924;SDS011;5001;51.674;7.868;2023-08-24T07:54:16;7.40;;;6.78;;
9924;SDS011;5001;51.674;7.868;2023-08-24T07:56:43;7.93;;;6.97;;
9924;SDS011;5001;51.674;7.868;2023-08-24T07:59:10;8.77;;;7.10;;
9924;SDS011;5001;51.674;7.868;2023-08-24T08:01:37;10.45;;;6.75;;
9924;SDS011;5001;51.674;7.868;2023-08-24T08:04:04;7.80;;;6.97;;
9924;SDS011;5001;51.674;7.868;2023-08-24T08:06:31;7.53;;;6.82;;
9924;SDS011;5001;51.674;7.868;2023-08-24T08:08:58;7.28;;;6.45;;
9924;SDS011;5001;51.674;7.868;2023-08-24T08:11:25;7.90;;;6.28;;
9924;SDS011;5001;51.674;7.868;2023-08-24T08:13:52;9.77;;;6.53;;
9924;SDS011;5001;51.674;7.868;2023-08-24T08:16:19;6.85;;;6.15;;
9924;SDS011;5001;51.674;7.868;2023-08-24T08:18:46;6.70;;;5.97;;
9924;SDS011;5001;51.674;7.868;2023-08-24T08:21:16;6.35;;;5.78;;
9924;SDS011;5001;51.674;7.868;2023-08-24T08:23:48;7.30;;;6.03;;
9924;SDS011;5001;51.674;7.868;2023-08-24T08:26:15;7.45;;;6.07;;
9924;SDS011;5001;51.674;7.868;2023-08-24T08:28:43;6.88;;;5.78;;
9924;SDS011;5001;51.674;7.868;2023-08-24T08:31:11;8.18;;;5.95;;
9924;SDS011;5001;51.674;7.868;2023-08-24T08:33:38;6.30;;;5.70;;
9924;SDS011;5001;51.674;7.868;2023-08-24T08:36:05;6.97;;;5.78;;
9924;SDS011;5001;51.674;7.868;2023-08-24T08:38:32;6.43;;;5.35;;
9924;SDS011;5001;51.674;7.868;2023-08-24T08:41:03;9.77;;;5.97;;
9924;SDS011;5001;51.674;7.868;2023-08-24T08:43:31;6.57;;;5.90;;
9924;SDS011;5001;51.674;7.868;2023-08-24T08:45:58;7.82;;;6.15;;
9924;SDS011;5001;51.674;7.868;2023-08-24T08:48:27;7.18;;;6.47;;
9924;SDS011;5001;51.674;7.868;2023-08-24T08:50:57;9.23;;;6.03;;
9924;SDS011;5001;51.674;7.868;2023-08-24T08:53:25;6.68;;;5.80;;
9924;SDS011;5001;51.674;7.868;2023-08-24T08:55:54;7.50;;;5.30;;
9924;SDS011;5001;51.674;7.868;2023-08-24T08:58:24;6.47;;;5.68;;
9924;SDS011;5001;51.674;7.868;2023-08-24T09:00:53;7.25;;;5.78;;
9924;SDS011;5001;51.674;7.868;2023-08-24T09:03:20;7.20;;;5.30;;
9924;SDS011;5001;51.674;7.868;2023-08-24T09:05:48;6.28;;;5.28;;
9924;SDS011;5001;51.674;7.868;2023-08-24T09:08:18;6.78;;;4.75;;
9924;SDS011;5001;51.674;7.868;2023-08-24T09:10:46;5.97;;;4.90;;
9924;SDS011;5001;51.674;7.868;2023-08-24T09:13:13;5.28;;;4.82;;
9924;SDS011;5001;51.674;7.868;2023-08-24T09:15:41;5.80;;;5.20;;
9924;SDS011;5001;51.674;7.868;2023-08-24T09:18:08;5.45;;;4.95;;
9924;SDS011;5001;51.674;7.868;2023-08-24T09:20:35;6.88;;;5.35;;
9924;SDS011;5001;51.674;7.868;2023-08-24T09:23:02;6.47;;;4.85;;
9924;SDS011;5001;51.674;7.868;2023-08-24T09:25:30;5.15;;;4.72;;
9924;SDS011;5001;51.674;7.868;2023-08-24T09:27:57;5.25;;;4.75;;
9924;SDS011;5001;51.674;7.868;2023-08-24T09:30:34;6.05;;;5.28;;
9924;SDS011;5001;51.674;7.868;2023-08-24T09:33:12;4.70;;;4.22;;
9924;SDS011;5001;51.674;7.868;2023-08-24T09:35:39;4.88;;;4.38;;
9924;SDS011;5001;51.674;7.868;2023-08-24T09:38:20;6.75;;;4.50;;
9924;SDS011;5001;51.674;7.868;2023-08-24T09:40:52;4.22;;;3.92;;
9924;SDS011;5001;51.674;7.868;2023-08-24T09:43:22;5.78;;;4.45;;
9924;SDS011;5001;51.674;7.868;2023-08-24T09:45:50;4.78;;;4.38;;
9924;SDS011;5001;51.674;7.868;2023-08-24T09:48:21;4.70;;;4.30;;
9924;SDS011;5001;51.674;7.868;2023-08-24T09:50:51;4.70;;;4.30;;
9924;SDS011;5001;51.674;7.868;2023-08-24T09:53:19;5.00;;;4.50;;
9924;SDS011;5001;51.674;7.868;2023-08-24T09:55:53;7.28;;;4.28;;
9924;SDS011;5001;51.674;7.868;2023-08-24T09:58:28;4.20;;;3.80;;
9924;SDS011;5001;51.674;7.868;2023-08-24T10:00:56;4.70;;;4.10;;
9924;SDS011;5001;51.674;7.868;2023-08-24T10:03:26;8.98;;;4.43;;
9924;SDS011;5001;51.674;7.868;2023-08-24T10:05:55;6.88;;;4.80;;
9924;SDS011;5001;51.674;7.868;2023-08-24T10:08:35;9.40;;;3.92;;
9924;SDS011;5001;51.674;7.868;2023-08-24T10:11:04;5.07;;;4.00;;
9924;SDS011;5001;51.674;7.868;2023-08-24T10:13:36;5.18;;;4.40;;
9924;SDS011;5001;51.674;7.868;2023-08-24T10:16:10;6.20;;;4.47;;
9924;SDS011;5001;51.674;7.868;2023-08-24T10:18:40;8.75;;;4.53;;
9924;SDS011;5001;51.674;7.868;2023-08-24T10:21:07;7.80;;;4.40;;
9924;SDS011;5001;51.674;7.868;2023-08-24T10:23:35;5.78;;;4.57;;
9924;SDS011;5001;51.674;7.868;2023-08-24T10:26:03;8.45;;;5.22;;
9924;SDS011;5001;51.674;7.868;2023-08-24T10:28:34;7.10;;;3.92;;
9924;SDS011;5001;51.674;7.868;2023-08-24T10:31:01;4.95;;;4.40;;
9924;SDS011;5001;51.674;7.868;2023-08-24T10:33:29;4.75;;;3.65;;
9924;SDS011;5001;51.674;7.868;2023-08-24T10:35:57;6.25;;;3.78;;
9924;SDS011;5001;51.674;7.868;2023-08-24T10:38:25;4.10;;;3.80;;
9924;SDS011;5001;51.674;7.868;2023-08-24T10:41:02;6.95;;;4.57;;
9924;SDS011;5001;51.674;7.868;2023-08-24T10:43:34;4.18;;;3.78;;
9924;SDS011;5001;51.674;7.868;2023-08-24T10:46:10;4.20;;;3.80;;
9924;SDS011;5001;51.674;7.868;2023-08-24T10:51:18;5.22;;;4.28;;
9924;SDS011;5001;51.674;7.868;2023-08-24T10:56:30;5.00;;;4.50;;
9924;SDS011;5001;51.674;7.868;2023-08-24T10:59:14;4.68;;;4.25;;
9924;SDS011;5001;51.674;7.868;2023-08-24T11:01:54;4.50;;;3.95;;
9924;SDS011;5001;51.674;7.868;2023-08-24T11:04:22;4.93;;;4.18;;
9924;SDS011;5001;51.674;7.868;2023-08-24T11:06:59;6.10;;;4.10;;
9924;SDS011;5001;51.674;7.868;2023-08-24T11:09:45;4.28;;;3.88;;
9924;SDS011;5001;51.674;7.868;2023-08-24T11:12:14;5.63;;;4.38;;
9924;SDS011;5001;51.674;7.868;2023-08-24T11:14:50;5.20;;;4.40;;
9924;SDS011;5001;51.674;7.868;2023-08-24T11:17:21;4.22;;;3.83;;
9924;SDS011;5001;51.674;7.868;2023-08-24T11:19:49;4.22;;;3.83;;
9924;SDS011;5001;51.674;7.868;2023-08-24T11:22:20;7.10;;;4.50;;
9924;SDS011;5001;51.674;7.868;2023-08-24T11:24:47;4.45;;;4.03;;
9924;SDS011;5001;51.674;7.868;2023-08-24T11:27:14;4.55;;;4.18;;
9924;SDS011;5001;51.674;7.868;2023-08-24T11:29:42;5.47;;;4.60;;
9924;SDS011;5001;51.674;7.868;2023-08-24T11:32:09;4.30;;;3.97;;
9924;SDS011;5001;51.674;7.868;2023-08-24T11:34:37;4.75;;;4.35;;
9924;SDS011;5001;51.674;7.868;2023-08-24T11:37:05;4.20;;;3.90;;
9924;SDS011;5001;51.674;7.868;2023-08-24T11:39:32;5.38;;;4.65;;
9924;SDS011;5001;51.674;7.868;2023-08-24T11:42:00;4.72;;;3.72;;
9924;SDS011;5001;51.674;7.868;2023-08-24T11:44:28;6.28;;;4.20;;
9924;SDS011;5001;51.674;7.868;2023-08-24T11:46:57;5.38;;;4.03;;
9924;SDS011;5001;51.674;7.868;2023-08-24T11:49:25;7.30;;;4.20;;
9924;SDS011;5001;51.674;7.868;2023-08-24T11:51:53;5.22;;;4.00;;
9924;SDS011;5001;51.674;7.868;2023-08-24T11:54:20;4.18;;;3.78;;
9924;SDS011;5001;51.674;7.868;2023-08-24T11:56:48;4.60;;;4.05;;
9924;SDS011;5001;51.674;7.868;2023-08-24T11:59:15;5.38;;;4.47;;
9924;SDS011;5001;51.674;7.868;2023-08-24T12:01:43;5.20;;;3.90;;
9924;SDS011;5001;51.674;7.868;2023-08-24T12:04:13;4.45;;;4.07;;
9924;SDS011;5001;51.674;7.868;2023-08-24T12:06:40;4.55;;;3.92;;
9924;SDS011;5001;51.674;7.868;2023-08-24T12:09:07;4.82;;;4.32;;
9924;SDS011;5001;51.674;7.868;2023-08-24T12:11:37;5.15;;;4.38;;
9924;SDS011;5001;51.674;7.868;2023-08-24T12:14:05;6.25;;;4.13;;
9924;SDS011;5001;51.674;7.868;2023-08-24T12:16:36;4.40;;;4.00;;
9924;SDS011;5001;51.674;7.868;2023-08-24T12:19:06;7.60;;;4.38;;
9924;SDS011;5001;51.674;7.868;2023-08-24T12:21:34;12.85;;;4.15;;
9924;SDS011;5001;51.674;7.868;2023-08-24T12:26:35;4.90;;;4.22;;
9924;SDS011;5001;51.674;7.868;2023-08-24T12:29:04;5.30;;;4.00;;
9924;SDS011;5001;51.674;7.868;2023-08-24T12:31:33;5.55;;;4.15;;
9924;SDS011;5001;51.674;7.868;2023-08-24T12:34:05;4.57;;;4.15;;
9924;SDS011;5001;51.674;7.868;2023-08-24T12:36:33;4.13;;;3.70;;
9924;SDS011;5001;51.674;7.868;2023-08-24T12:39:03;5.82;;;3.80;;
9924;SDS011;5001;51.674;7.868;2023-08-24T12:41:31;7.90;;;4.30;;
9924;SDS011;5001;51.674;7.868;2023-08-24T12:44:01;4.13;;;3.72;;
9924;SDS011;5001;51.674;7.868;2023-08-24T12:46:34;4.65;;;3.78;;
9924;SDS011;5001;51.674;7.868;2023-08-24T12:49:02;5.38;;;4.50;;
9924;SDS011;5001;51.674;7.868;2023-08-24T12:51:29;4.45;;;3.70;;
9924;SDS011;5001;51.674;7.868;2023-08-24T12:53:56;8.15;;;3.95;;
9924;SDS011;5001;51.674;7.868;2023-08-24T12:56:23;4.97;;;3.80;;
9924;SDS011;5001;51.674;7.868;2023-08-24T12:58:50;5.97;;;3.92;;
9924;SDS011;5001;51.674;7.868;2023-08-24T13:01:17;4.05;;;3.65;;
9924;SDS011;5001;51.674;7.868;2023-08-24T13:03:44;7.43;;;4.50;;
9924;SDS011;5001;51.674;7.868;2023-08-24T13:06:11;4.40;;;4.00;;
9924;SDS011;5001;51.674;7.868;2023-08-24T13:08:50;5.72;;;4.32;;
9924;SDS011;5001;51.674;7.868;2023-08-24T13:11:20;5.40;;;4.10;;
9924;SDS011;5001;51.674;7.868;2023-08-24T13:13:48;6.47;;;4.78;;
9924;SDS011;5001;51.674;7.868;2023-08-24T13:16:15;5.82;;;3.60;;
9924;SDS011;5001;51.674;7.868;2023-08-24T13:18:42;4.82;;;3.92;;
9924;SDS011;5001;51.674;7.868;2023-08-24T13:21:09;4.57;;;4.00;;
9924;SDS011;5001;51.674;7.868;2023-08-24T13:23:36;5.28;;;4.40;;
9924;SDS011;5001;51.674;7.868;2023-08-24T13:26:03;5.53;;;4.25;;
9924;SDS011;5001;51.674;7.868;2023-08-24T13:28:30;5.70;;;3.92;;
9924;SDS011;5001;51.674;7.868;2023-08-24T13:30:57;5.05;;;4.40;;
9924;SDS011;5001;51.674;7.868;2023-08-24T13:33:24;4.03;;;3.63;;
9924;SDS011;5001;51.674;7.868;2023-08-24T13:35:51;3.83;;;3.25;;
9924;SDS011;5001;51.674;7.868;2023-08-24T13:38:18;10.50;;;3.88;;
9924;SDS011;5001;51.674;7.868;2023-08-24T13:40:45;4.35;;;3.20;;
9924;SDS011;5001;51.674;7.868;2023-08-24T13:43:15;9.60;;;3.58;;
9924;SDS011;5001;51.674;7.868;2023-08-24T13:45:42;3.38;;;3.05;;
9924;SDS011;5001;51.674;7.868;2023-08-24T13:48:09;3.47;;;3.08;;
9924;SDS011;5001;51.674;7.868;2023-08-24T13:50:37;4.50;;;3.60;;
9924;SDS011;5001;51.674;7.868;2023-08-24T13:53:04;3.95;;;3.55;;
9924;SDS011;5001;51.674;7.868;2023-08-24T13:55:30;4.22;;;3.20;;
9924;SDS011;5001;51.674;7.868;2023-08-24T13:57:58;5.20;;;3.67;;
9924;SDS011;5001;51.674;7.868;2023-08-24T14:00:25;4.50;;;3.28;;
9924;SDS011;5001;51.674;7.868;2023-08-24T14:02:52;4.35;;;3.40;;
9924;SDS011;5001;51.674;7.868;2023-08-24T14:05:20;7.10;;;3.72;;
9924;SDS011;5001;51.674;7.868;2023-08-24T14:07:47;4.25;;;3.60;;
9924;SDS011;5001;51.674;7.868;2023-08-24T14:10:14;7.63;;;3.40;;
9924;SDS011;5001;51.674;7.868;2023-08-24T14:12:42;4.13;;;3.17;;
9924;SDS011;5001;51.674;7.868;2023-08-24T14:15:09;5.15;;;3.53;;
9924;SDS011;5001;51.674;7.868;2023-08-24T14:17:37;6.20;;;3.35;;
9924;SDS011;5001;51.674;7.868;2023-08-24T14:20:05;7.05;;;3.65;;
9924;SDS011;5001;51.674;7.868;2023-08-24T14:22:35;4.45;;;3.15;;
9924;SDS011;5001;51.674;7.868;2023-08-24T14:25:02;3.47;;;3.17;;
9924;SDS011;5001;51.674;7.868;2023-08-24T14:27:29;5.40;;;3.20;;
9924;SDS011;5001;51.674;7.868;2023-08-24T14:29:56;3.70;;;3.40;;
9924;SDS011;5001;51.674;7.868;2023-08-24T14:32:23;3.20;;;2.90;;
9924;SDS011;5001;51.674;7.868;2023-08-24T14:34:50;5.47;;;3.47;;
9924;SDS011;5001;51.674;7.868;2023-08-24T14:37:17;3.88;;;3.13;;
9924;SDS011;5001;51.674;7.868;2023-08-24T14:39:44;3.13;;;2.90;;
9924;SDS011;5001;51.674;7.868;2023-08-24T14:42:11;5.20;;;3.22;;
9924;SDS011;5001;51.674;7.868;2023-08-24T14:44:38;3.65;;;3.30;;
9924;SDS011;5001;51.674;7.868;2023-08-24T14:47:05;4.25;;;3.35;;
9924;SDS011;5001;51.674;7.868;2023-08-24T14:49:32;6.32;;;3.58;;
9924;SDS011;5001;51.674;7.868;2023-08-24T14:51:59;5.88;;;3.30;;
9924;SDS011;5001;51.674;7.868;2023-08-24T14:54:26;4.22;;;3.53;;
9924;SDS011;5001;51.674;7.868;2023-08-24T14:56:52;4.72;;;3.55;;
9924;SDS011;5001;51.674;7.868;2023-08-24T14:59:19;4.03;;;3.55;;
9924;SDS011;5001;51.674;7.868;2023-08-24T15:01:48;5.72;;;3.22;;
9924;SDS011;5001;51.674;7.868;2023-08-24T15:04:15;5.97;;;3.58;;
9924;SDS011;5001;51.674;7.868;2023-08-24T15:06:42;4.45;;;3.58;;
9924;SDS011;5001;51.674;7.868;2023-08-24T15:09:09;6.57;;;3.53;;
9924;SDS011;5001;51.674;7.868;2023-08-24T15:11:37;4.45;;;3.00;;
9924;SDS011;5001;51.674;7.868;2023-08-24T15:14:04;5.70;;;3.35;;
9924;SDS011;5001;51.674;7.868;2023-08-24T15:16:31;3.58;;;3.28;;
9924;SDS011;5001;51.674;7.868;2023-08-24T15:18:58;3.83;;;3.42;;
9924;SDS011;5001;51.674;7.868;2023-08-24T15:21:25;3.88;;;3.20;;
9924;SDS011;5001;51.674;7.868;2023-08-24T15:23:53;6.10;;;3.47;;
9924;SDS011;5001;51.674;7.868;2023-08-24T15:26:21;9.18;;;3.58;;
9924;SDS011;5001;51.674;7.868;2023-08-24T15:29:07;3.70;;;3.38;;
9924;SDS011;5001;51.674;7.868;2023-08-24T15:31:39;3.63;;;3.25;;
9924;SDS011;5001;51.674;7.868;2023-08-24T15:34:07;3.78;;;3.03;;
9924;SDS011;5001;51.674;7.868;2023-08-24T15:36:35;3.70;;;3.28;;